sensor_id;sensor_type;location;lat;lon;timestamp;pressure;altitude;pressure_sealevel;temperature;humidity
69737;BME280;64476;55.004;73.342;2023-08-06T00:03:26;99959.41;;;17.24;70.25
69737;BME280;64476;55.004;73.342;2023-08-06T00:06:27;99967.50;;;17.36;69.93
69737;BME280;64476;55.004;73.342;2023-08-06T00:09:29;99987.38;;;17.52;69.68
69737;BME280;64476;55.004;73.342;2023-08-06T00:12:31;99993.44;;;17.59;69.55
69737;BME280;64476;55.004;73.342;2023-08-06T00:16:12;99992.63;;;17.58;69.78
69737;BME280;64476;55.004;73.342;2023-08-06T00:19:14;99965.94;;;17.46;69.53
69737;BME280;64476;55.004;73.342;2023-08-06T00:22:16;99977.94;;;17.56;69.73
69737;BME280;64476;55.004;73.342;2023-08-06T00:25:18;99960.50;;;17.41;69.72
69737;BME280;64476;55.004;73.342;2023-08-06T00:28:22;99958.06;;;17.40;69.83
69737;BME280;64476;55.004;73.342;2023-08-06T00:31:23;99971.00;;;17.55;69.78
69737;BME280;64476;55.004;73.342;2023-08-06T00:34:25;99960.22;;;17.50;69.57
69737;BME280;64476;55.004;73.342;2023-08-06T00:37:27;99975.22;;;17.62;69.78
69737;BME280;64476;55.004;73.342;2023-08-06T00:40:28;99967.25;;;17.62;69.52
69737;BME280;64476;55.004;73.342;2023-08-06T00:44:04;99976.59;;;17.65;69.46
69737;BME280;64476;55.004;73.342;2023-08-06T00:47:07;99931.28;;;17.41;69.52
69737;BME280;64476;55.004;73.342;2023-08-06T00:50:09;99964.59;;;17.62;69.50
69737;BME280;64476;55.004;73.342;2023-08-06T00:53:12;99960.22;;;17.68;69.29
69737;BME280;64476;55.004;73.342;2023-08-06T00:56:17;99969.38;;;17.72;69.40
69737;BME280;64476;55.004;73.342;2023-08-06T00:59:19;99967.75;;;17.71;69.11
69737;BME280;64476;55.004;73.342;2023-08-06T01:02:21;99972.19;;;17.77;69.18
69737;BME280;64476;55.004;73.342;2023-08-06T01:05:55;99967.91;;;17.76;69.12
69737;BME280;64476;55.004;73.342;2023-08-06T01:09:07;99964.22;;;17.77;68.91
69737;BME280;64476;55.004;73.342;2023-08-06T01:12:51;99973.50;;;17.86;68.78
69737;BME280;64476;55.004;73.342;2023-08-06T01:15:56;99957.13;;;17.89;68.50
69737;BME280;64476;55.004;73.342;2023-08-06T01:19:00;99954.81;;;17.93;68.50
69737;BME280;64476;55.004;73.342;2023-08-06T01:22:02;99955.91;;;18.04;68.84
69737;BME280;64476;55.004;73.342;2023-08-06T01:25:04;99949.56;;;18.05;68.86
69737;BME280;64476;55.004;73.342;2023-08-06T01:28:14;99941.22;;;18.01;68.77
69737;BME280;64476;55.004;73.342;2023-08-06T01:31:22;99962.72;;;18.18;68.21
69737;BME280;64476;55.004;73.342;2023-08-06T01:34:28;99957.53;;;18.23;68.30
69737;BME280;64476;55.004;73.342;2023-08-06T01:37:31;99963.38;;;18.32;68.10
69737;BME280;64476;55.004;73.342;2023-08-06T01:40:33;99953.66;;;18.37;67.66
69737;BME280;64476;55.004;73.342;2023-08-06T01:43:43;99938.75;;;18.36;67.29
69737;BME280;64476;55.004;73.342;2023-08-06T01:46:45;99961.72;;;18.61;67.24
69737;BME280;64476;55.004;73.342;2023-08-06T01:49:47;99956.53;;;18.66;67.12
69737;BME280;64476;55.004;73.342;2023-08-06T01:52:49;99958.03;;;18.74;66.93
69737;BME280;64476;55.004;73.342;2023-08-06T01:55:50;99960.16;;;18.83;66.41
69737;BME280;64476;55.004;73.342;2023-08-06T01:58:52;99956.94;;;18.93;66.22
69737;BME280;64476;55.004;73.342;2023-08-06T02:01:57;99956.94;;;19.05;65.85
69737;BME280;64476;55.004;73.342;2023-08-06T02:05:32;99954.06;;;19.18;65.48
69737;BME280;64476;55.004;73.342;2023-08-06T02:08:43;99953.84;;;19.31;64.48
69737;BME280;64476;55.004;73.342;2023-08-06T02:11:46;99940.63;;;19.36;64.22
69737;BME280;64476;55.004;73.342;2023-08-06T02:14:48;99940.28;;;19.45;63.70
69737;BME280;64476;55.004;73.342;2023-08-06T02:17:50;99956.56;;;19.60;63.03
69737;BME280;64476;55.004;73.342;2023-08-06T02:21:13;99949.75;;;19.64;63.09
69737;BME280;64476;55.004;73.342;2023-08-06T02:24:15;99918.00;;;19.62;62.43
69737;BME280;64476;55.004;73.342;2023-08-06T02:27:17;99941.72;;;19.88;62.31
69737;BME280;64476;55.004;73.342;2023-08-06T02:30:18;99928.34;;;19.99;61.74
69737;BME280;64476;55.004;73.342;2023-08-06T02:33:20;99921.75;;;20.02;61.21
69737;BME280;64476;55.004;73.342;2023-08-06T02:36:23;99946.13;;;20.22;61.47
69737;BME280;64476;55.004;73.342;2023-08-06T02:39:25;99937.75;;;20.30;61.28
69737;BME280;64476;55.004;73.342;2023-08-06T02:42:29;99929.47;;;20.44;60.99
69737;BME280;64476;55.004;73.342;2023-08-06T02:45:30;99920.25;;;20.51;60.40
69737;BME280;64476;55.004;73.342;2023-08-06T02:48:32;99934.16;;;20.70;60.17
69737;BME280;64476;55.004;73.342;2023-08-06T02:51:35;99935.47;;;20.85;60.01
69737;BME280;64476;55.004;73.342;2023-08-06T02:54:37;99934.84;;;20.94;59.40
69737;BME280;64476;55.004;73.342;2023-08-06T02:57:46;99918.16;;;21.04;59.01
69737;BME280;64476;55.004;73.342;2023-08-06T03:01:02;99905.63;;;21.04;58.52
69737;BME280;64476;55.004;73.342;2023-08-06T03:04:08;99904.16;;;21.14;58.31
69737;BME280;64476;55.004;73.342;2023-08-06T03:07:16;99907.28;;;21.27;58.27
69737;BME280;64476;55.004;73.342;2023-08-06T03:10:28;99918.56;;;21.51;58.29
69737;BME280;64476;55.004;73.342;2023-08-06T03:13:33;99920.81;;;21.60;57.92
69737;BME280;64476;55.004;73.342;2023-08-06T03:16:36;99882.94;;;21.46;57.80
69737;BME280;64476;55.004;73.342;2023-08-06T03:19:38;99895.56;;;21.72;58.27
69737;BME280;64476;55.004;73.342;2023-08-06T03:22:41;99914.06;;;21.96;58.17
69737;BME280;64476;55.004;73.342;2023-08-06T03:25:44;99927.88;;;22.15;57.88
69737;BME280;64476;55.004;73.342;2023-08-06T03:28:47;99899.81;;;22.17;57.42
69737;BME280;64476;55.004;73.342;2023-08-06T03:31:51;99923.09;;;22.44;57.19
69737;BME280;64476;55.004;73.342;2023-08-06T03:34:53;99928.16;;;22.45;57.20
69737;BME280;64476;55.004;73.342;2023-08-06T03:38:00;99921.31;;;22.55;56.57
69737;BME280;64476;55.004;73.342;2023-08-06T03:41:05;99910.84;;;22.48;56.50
69737;BME280;64476;55.004;73.342;2023-08-06T03:44:07;99915.44;;;22.58;56.23
69737;BME280;64476;55.004;73.342;2023-08-06T03:47:09;99913.38;;;22.65;56.29
69737;BME280;64476;55.004;73.342;2023-08-06T03:50:11;99911.28;;;22.72;56.16
69737;BME280;64476;55.004;73.342;2023-08-06T03:53:14;99918.63;;;22.87;55.68
69737;BME280;64476;55.004;73.342;2023-08-06T03:56:17;99926.50;;;23.04;55.83
69737;BME280;64476;55.004;73.342;2023-08-06T03:59:19;99902.91;;;23.01;55.77
69737;BME280;64476;55.004;73.342;2023-08-06T04:02:22;99917.31;;;23.27;55.32
69737;BME280;64476;55.004;73.342;2023-08-06T04:05:24;99926.50;;;23.41;55.45
69737;BME280;64476;55.004;73.342;2023-08-06T04:08:26;99927.88;;;23.54;54.86
69737;BME280;64476;55.004;73.342;2023-08-06T04:11:27;99915.59;;;23.63;54.71
69737;BME280;64476;55.004;73.342;2023-08-06T04:14:30;99900.31;;;23.63;54.53
69737;BME280;64476;55.004;73.342;2023-08-06T04:17:33;99899.59;;;23.78;54.35
69737;BME280;64476;55.004;73.342;2023-08-06T04:20:55;99912.50;;;24.02;53.93
69737;BME280;64476;55.004;73.342;2023-08-06T04:24:05;99910.66;;;24.07;53.36
69737;BME280;64476;55.004;73.342;2023-08-06T04:27:22;99917.09;;;24.16;53.11
69737;BME280;64476;55.004;73.342;2023-08-06T04:30:29;99905.59;;;24.21;53.48
69737;BME280;64476;55.004;73.342;2023-08-06T04:33:31;99906.13;;;24.33;53.28
69737;BME280;64476;55.004;73.342;2023-08-06T04:36:44;99897.84;;;24.40;52.28
69737;BME280;64476;55.004;73.342;2023-08-06T04:39:46;99911.25;;;24.60;51.82
69737;BME280;64476;55.004;73.342;2023-08-06T04:42:50;99913.41;;;24.74;51.01
69737;BME280;64476;55.004;73.342;2023-08-06T04:49:29;99907.47;;;24.92;50.59
69737;BME280;64476;55.004;73.342;2023-08-06T04:52:31;99879.53;;;24.93;50.52
69737;BME280;64476;55.004;73.342;2023-08-06T04:55:33;99849.44;;;24.86;50.18
69737;BME280;64476;55.004;73.342;2023-08-06T04:58:43;99894.00;;;25.28;50.42
69737;BME280;64476;55.004;73.342;2023-08-06T05:01:45;99892.59;;;25.41;50.28
69737;BME280;64476;55.004;73.342;2023-08-06T05:04:47;99895.00;;;25.47;50.05
69737;BME280;64476;55.004;73.342;2023-08-06T05:07:49;99858.22;;;25.32;50.23
69737;BME280;64476;55.004;73.342;2023-08-06T05:10:51;99894.69;;;25.54;50.06
69737;BME280;64476;55.004;73.342;2023-08-06T05:13:53;99896.56;;;25.64;49.23
69737;BME280;64476;55.004;73.342;2023-08-06T05:16:54;99898.94;;;25.75;49.07
69737;BME280;64476;55.004;73.342;2023-08-06T05:19:59;99874.97;;;25.74;49.25
69737;BME280;64476;55.004;73.342;2023-08-06T05:23:02;99887.28;;;25.90;49.22
69737;BME280;64476;55.004;73.342;2023-08-06T05:26:13;99888.09;;;25.91;49.10
69737;BME280;64476;55.004;73.342;2023-08-06T05:29:17;99867.66;;;25.84;49.77
69737;BME280;64476;55.004;73.342;2023-08-06T05:32:20;99886.84;;;26.17;48.65
69737;BME280;64476;55.004;73.342;2023-08-06T05:35:22;99882.59;;;26.45;48.47
69737;BME280;64476;55.004;73.342;2023-08-06T05:38:23;99888.84;;;26.75;48.68
69737;BME280;64476;55.004;73.342;2023-08-06T05:41:25;99893.50;;;26.93;47.06
69737;BME280;64476;55.004;73.342;2023-08-06T05:44:27;99873.38;;;27.10;46.09
69737;BME280;64476;55.004;73.342;2023-08-06T05:47:28;99883.97;;;27.25;45.81
69737;BME280;64476;55.004;73.342;2023-08-06T05:50:30;99877.47;;;27.26;45.82
69737;BME280;64476;55.004;73.342;2023-08-06T05:53:32;99877.63;;;27.40;45.38
69737;BME280;64476;55.004;73.342;2023-08-06T05:56:34;99869.19;;;27.46;45.13
69737;BME280;64476;55.004;73.342;2023-08-06T05:59:35;99850.38;;;27.41;44.87
69737;BME280;64476;55.004;73.342;2023-08-06T06:02:37;99873.41;;;27.34;45.70
69737;BME280;64476;55.004;73.342;2023-08-06T06:05:39;99868.78;;;27.10;46.06
69737;BME280;64476;55.004;73.342;2023-08-06T06:08:44;99804.94;;;26.52;45.89
69737;BME280;64476;55.004;73.342;2023-08-06T06:11:48;99859.06;;;26.85;46.10
69737;BME280;64476;55.004;73.342;2023-08-06T06:14:51;99862.63;;;26.80;45.96
69737;BME280;64476;55.004;73.342;2023-08-06T06:17:52;99856.72;;;27.02;45.02
69737;BME280;64476;55.004;73.342;2023-08-06T06:20:54;99842.56;;;27.16;45.70
69737;BME280;64476;55.004;73.342;2023-08-06T06:23:56;99855.81;;;27.36;45.05
69737;BME280;64476;55.004;73.342;2023-08-06T06:26:58;99845.22;;;27.45;44.28
69737;BME280;64476;55.004;73.342;2023-08-06T06:30:00;99841.69;;;27.20;44.47
69737;BME280;64476;55.004;73.342;2023-08-06T06:33:02;99847.16;;;26.91;45.16
69737;BME280;64476;55.004;73.342;2023-08-06T06:36:04;99835.81;;;26.94;45.77
69737;BME280;64476;55.004;73.342;2023-08-06T06:39:05;99837.75;;;27.13;45.13
69737;BME280;64476;55.004;73.342;2023-08-06T06:42:08;99841.31;;;27.32;43.25
69737;BME280;64476;55.004;73.342;2023-08-06T06:45:17;99807.75;;;27.19;42.50
69737;BME280;64476;55.004;73.342;2023-08-06T06:48:18;99829.16;;;27.54;41.91
69737;BME280;64476;55.004;73.342;2023-08-06T06:51:20;99832.09;;;27.57;42.44
69737;BME280;64476;55.004;73.342;2023-08-06T06:54:22;99821.06;;;27.72;41.54
69737;BME280;64476;55.004;73.342;2023-08-06T06:57:23;99819.59;;;27.80;41.82
69737;BME280;64476;55.004;73.342;2023-08-06T07:00:26;99821.28;;;27.95;42.13
69737;BME280;64476;55.004;73.342;2023-08-06T07:03:28;99809.03;;;28.03;41.33
69737;BME280;64476;55.004;73.342;2023-08-06T07:06:30;99798.06;;;28.13;41.69
69737;BME280;64476;55.004;73.342;2023-08-06T07:09:32;99782.41;;;27.96;42.44
69737;BME280;64476;55.004;73.342;2023-08-06T07:12:33;99805.38;;;28.12;42.41
69737;BME280;64476;55.004;73.342;2023-08-06T07:19:15;99792.81;;;28.35;40.99
69737;BME280;64476;55.004;73.342;2023-08-06T07:22:16;99797.31;;;28.40;40.50
69737;BME280;64476;55.004;73.342;2023-08-06T07:25:18;99763.78;;;28.27;41.50
69737;BME280;64476;55.004;73.342;2023-08-06T07:28:22;99752.53;;;28.53;40.74
69737;BME280;64476;55.004;73.342;2023-08-06T07:32:01;99777.41;;;28.96;39.39
69737;BME280;64476;55.004;73.342;2023-08-06T07:35:03;99754.94;;;28.68;39.54
69737;BME280;64476;55.004;73.342;2023-08-06T07:38:43;99767.03;;;28.43;38.49
69737;BME280;64476;55.004;73.342;2023-08-06T07:41:45;99759.72;;;28.11;39.26
69737;BME280;64476;55.004;73.342;2023-08-06T07:44:52;99754.75;;;28.04;39.27
69737;BME280;64476;55.004;73.342;2023-08-06T07:47:54;99746.97;;;28.16;39.16
69737;BME280;64476;55.004;73.342;2023-08-06T07:50:56;99745.56;;;28.33;38.79
69737;BME280;64476;55.004;73.342;2023-08-06T07:53:59;99746.41;;;28.47;38.54
69737;BME280;64476;55.004;73.342;2023-08-06T07:57:10;99734.13;;;28.41;39.12
69737;BME280;64476;55.004;73.342;2023-08-06T08:00:12;99745.13;;;28.44;38.89
69737;BME280;64476;55.004;73.342;2023-08-06T08:03:15;99746.84;;;28.21;37.73
69737;BME280;64476;55.004;73.342;2023-08-06T08:06:17;99698.19;;;27.61;37.84
69737;BME280;64476;55.004;73.342;2023-08-06T08:12:52;99747.31;;;27.20;39.22
69737;BME280;64476;55.004;73.342;2023-08-06T08:15:58;99739.31;;;27.15;39.35
69737;BME280;64476;55.004;73.342;2023-08-06T08:19:03;99710.91;;;27.23;38.87
69737;BME280;64476;55.004;73.342;2023-08-06T08:22:05;99730.94;;;27.55;38.42
69737;BME280;64476;55.004;73.342;2023-08-06T08:25:07;99724.66;;;27.78;38.54
69737;BME280;64476;55.004;73.342;2023-08-06T08:28:09;99712.41;;;27.67;38.32
69737;BME280;64476;55.004;73.342;2023-08-06T08:31:12;99710.75;;;27.52;38.89
69737;BME280;64476;55.004;73.342;2023-08-06T08:34:13;99663.75;;;27.01;38.95
69737;BME280;64476;55.004;73.342;2023-08-06T08:37:15;99710.06;;;27.03;39.71
69737;BME280;64476;55.004;73.342;2023-08-06T08:40:17;99736.09;;;27.13;39.81
69737;BME280;64476;55.004;73.342;2023-08-06T08:43:23;99714.38;;;27.23;38.63
69737;BME280;64476;55.004;73.342;2023-08-06T08:46:32;99704.88;;;27.31;38.47
69737;BME280;64476;55.004;73.342;2023-08-06T08:50:07;99718.91;;;27.47;38.18
69737;BME280;64476;55.004;73.342;2023-08-06T08:53:11;99697.13;;;27.43;38.59
69737;BME280;64476;55.004;73.342;2023-08-06T08:56:14;99710.78;;;27.66;37.94
69737;BME280;64476;55.004;73.342;2023-08-06T08:59:16;99709.47;;;27.82;38.03
69737;BME280;64476;55.004;73.342;2023-08-06T09:02:18;99706.72;;;28.01;37.49
69737;BME280;64476;55.004;73.342;2023-08-06T09:05:59;99703.13;;;28.06;36.34
69737;BME280;64476;55.004;73.342;2023-08-06T09:09:08;99704.94;;;28.10;36.31
69737;BME280;64476;55.004;73.342;2023-08-06T09:12:17;99674.94;;;27.98;36.68
69737;BME280;64476;55.004;73.342;2023-08-06T09:15:19;99708.06;;;28.31;36.55
69737;BME280;64476;55.004;73.342;2023-08-06T09:18:26;99716.28;;;28.26;36.41
69737;BME280;64476;55.004;73.342;2023-08-06T09:22:08;99701.19;;;27.92;36.39
69737;BME280;64476;55.004;73.342;2023-08-06T09:25:31;99622.69;;;27.42;36.96
69737;BME280;64476;55.004;73.342;2023-08-06T09:28:43;99684.41;;;27.95;36.97
69737;BME280;64476;55.004;73.342;2023-08-06T09:31:47;99698.50;;;27.92;37.62
69737;BME280;64476;55.004;73.342;2023-08-06T09:38:37;99689.41;;;27.69;36.79
69737;BME280;64476;55.004;73.342;2023-08-06T09:41:41;99703.84;;;27.79;37.21
69737;BME280;64476;55.004;73.342;2023-08-06T09:44:45;99666.44;;;27.72;36.77
69737;BME280;64476;55.004;73.342;2023-08-06T09:48:24;99662.94;;;27.71;36.56
69737;BME280;64476;55.004;73.342;2023-08-06T09:51:59;99669.44;;;27.70;36.68
69737;BME280;64476;55.004;73.342;2023-08-06T09:55:03;99683.34;;;27.77;35.95
69737;BME280;64476;55.004;73.342;2023-08-06T09:58:05;99668.03;;;27.73;35.96
69737;BME280;64476;55.004;73.342;2023-08-06T10:01:09;99690.06;;;27.80;36.17
69737;BME280;64476;55.004;73.342;2023-08-06T10:04:47;99667.75;;;27.74;35.64
69737;BME280;64476;55.004;73.342;2023-08-06T10:07:49;99689.47;;;27.83;35.41
69737;BME280;64476;55.004;73.342;2023-08-06T10:10:53;99697.69;;;27.92;34.83
69737;BME280;64476;55.004;73.342;2023-08-06T10:14:32;99690.91;;;27.94;34.96
69737;BME280;64476;55.004;73.342;2023-08-06T10:17:35;99672.41;;;27.88;35.01
69737;BME280;64476;55.004;73.342;2023-08-06T10:20:38;99688.84;;;28.05;34.34
69737;BME280;64476;55.004;73.342;2023-08-06T10:23:43;99694.72;;;28.07;34.59
69737;BME280;64476;55.004;73.342;2023-08-06T10:26:45;99686.53;;;28.12;34.58
69737;BME280;64476;55.004;73.342;2023-08-06T10:29:46;99686.44;;;28.04;34.56
69737;BME280;64476;55.004;73.342;2023-08-06T10:32:50;99700.63;;;28.09;34.46
69737;BME280;64476;55.004;73.342;2023-08-06T10:36:01;99699.94;;;28.17;34.73
69737;BME280;64476;55.004;73.342;2023-08-06T10:39:02;99692.19;;;28.30;34.38
69737;BME280;64476;55.004;73.342;2023-08-06T10:42:05;99702.41;;;28.46;34.30
69737;BME280;64476;55.004;73.342;2023-08-06T10:45:23;99700.09;;;28.67;33.43
69737;BME280;64476;55.004;73.342;2023-08-06T10:48:38;99686.56;;;28.67;33.09
69737;BME280;64476;55.004;73.342;2023-08-06T10:51:40;99700.69;;;28.78;32.63
69737;BME280;64476;55.004;73.342;2023-08-06T10:54:41;99684.66;;;28.68;32.84
69737;BME280;64476;55.004;73.342;2023-08-06T10:57:43;99701.19;;;28.94;32.28
69737;BME280;64476;55.004;73.342;2023-08-06T11:00:45;99712.44;;;29.10;32.35
69737;BME280;64476;55.004;73.342;2023-08-06T11:03:47;99720.78;;;29.36;31.77
69737;BME280;64476;55.004;73.342;2023-08-06T11:06:52;99695.22;;;29.42;32.00
69737;BME280;64476;55.004;73.342;2023-08-06T11:10:04;99688.31;;;29.50;30.63
69737;BME280;64476;55.004;73.342;2023-08-06T11:13:06;99705.31;;;29.95;30.81
69737;BME280;64476;55.004;73.342;2023-08-06T11:16:09;99684.25;;;30.14;29.79
69737;BME280;64476;55.004;73.342;2023-08-06T11:19:11;99709.28;;;30.69;29.52
69737;BME280;64476;55.004;73.342;2023-08-06T11:22:14;99699.97;;;31.01;28.72
69737;BME280;64476;55.004;73.342;2023-08-06T11:25:19;99710.84;;;31.36;28.16
69737;BME280;64476;55.004;73.342;2023-08-06T11:28:22;99701.91;;;31.61;27.54
69737;BME280;64476;55.004;73.342;2023-08-06T11:31:24;99709.53;;;31.85;27.93
69737;BME280;64476;55.004;73.342;2023-08-06T11:34:26;99715.06;;;31.97;27.45
69737;BME280;64476;55.004;73.342;2023-08-06T11:37:31;99673.59;;;31.71;27.33
69737;BME280;64476;55.004;73.342;2023-08-06T11:40:35;99682.56;;;30.93;28.72
69737;BME280;64476;55.004;73.342;2023-08-06T11:43:45;99672.72;;;30.00;29.53
69737;BME280;64476;55.004;73.342;2023-08-06T11:46:54;99707.75;;;29.38;30.49
69737;BME280;64476;55.004;73.342;2023-08-06T11:50:36;99707.41;;;28.53;31.45
69737;BME280;64476;55.004;73.342;2023-08-06T11:53:53;99692.81;;;27.94;32.94
69737;BME280;64476;55.004;73.342;2023-08-06T11:56:56;99711.81;;;27.70;32.89
69737;BME280;64476;55.004;73.342;2023-08-06T11:59:57;99717.19;;;27.37;33.66
69737;BME280;64476;55.004;73.342;2023-08-06T12:02:59;99727.22;;;27.13;34.34
69737;BME280;64476;55.004;73.342;2023-08-06T12:06:01;99724.00;;;27.11;34.05
69737;BME280;64476;55.004;73.342;2023-08-06T12:09:03;99714.88;;;26.88;33.98
69737;BME280;64476;55.004;73.342;2023-08-06T12:12:04;99710.97;;;26.51;34.74
69737;BME280;64476;55.004;73.342;2023-08-06T12:15:07;99732.34;;;26.42;34.72
69737;BME280;64476;55.004;73.342;2023-08-06T12:18:10;99735.47;;;26.25;35.16
69737;BME280;64476;55.004;73.342;2023-08-06T12:21:11;99724.88;;;26.05;35.38
69737;BME280;64476;55.004;73.342;2023-08-06T12:24:51;99700.44;;;25.67;35.84
69737;BME280;64476;55.004;73.342;2023-08-06T12:27:56;99713.38;;;25.60;36.22
69737;BME280;64476;55.004;73.342;2023-08-06T12:30:58;99727.13;;;25.58;36.22
69737;BME280;64476;55.004;73.342;2023-08-06T12:34:00;99723.19;;;25.41;36.48
69737;BME280;64476;55.004;73.342;2023-08-06T12:37:02;99747.94;;;25.37;36.72
69737;BME280;64476;55.004;73.342;2023-08-06T12:40:05;99748.31;;;25.16;36.97
69737;BME280;64476;55.004;73.342;2023-08-06T12:43:06;99725.56;;;24.93;37.02
69737;BME280;64476;55.004;73.342;2023-08-06T12:46:08;99762.09;;;25.04;37.39
69737;BME280;64476;55.004;73.342;2023-08-06T12:49:10;99759.19;;;24.85;37.05
69737;BME280;64476;55.004;73.342;2023-08-06T12:52:13;99702.94;;;24.29;37.82
69737;BME280;64476;55.004;73.342;2023-08-06T12:55:20;99753.09;;;24.49;37.61
69737;BME280;64476;55.004;73.342;2023-08-06T12:58:22;99749.09;;;24.36;37.70
69737;BME280;64476;55.004;73.342;2023-08-06T13:01:23;99781.03;;;24.48;37.72
69737;BME280;64476;55.004;73.342;2023-08-06T13:04:25;99780.22;;;24.37;37.59
69737;BME280;64476;55.004;73.342;2023-08-06T13:07:27;99781.31;;;24.26;37.65
69737;BME280;64476;55.004;73.342;2023-08-06T13:10:28;99763.63;;;23.99;37.96
69737;BME280;64476;55.004;73.342;2023-08-06T13:13:32;99778.91;;;23.99;38.45
69737;BME280;64476;55.004;73.342;2023-08-06T13:16:35;99782.94;;;23.96;38.01
69737;BME280;64476;55.004;73.342;2023-08-06T13:19:37;99779.72;;;23.84;38.29
69737;BME280;64476;55.004;73.342;2023-08-06T13:22:38;99788.53;;;23.79;37.93
69737;BME280;64476;55.004;73.342;2023-08-06T13:25:40;99788.75;;;23.73;38.41
69737;BME280;64476;55.004;73.342;2023-08-06T13:28:43;99774.25;;;23.53;38.23
69737;BME280;64476;55.004;73.342;2023-08-06T13:35:24;99766.94;;;23.18;37.78
69737;BME280;64476;55.004;73.342;2023-08-06T13:38:25;99797.50;;;23.27;37.87
69737;BME280;64476;55.004;73.342;2023-08-06T13:41:27;99785.41;;;23.14;37.35
69737;BME280;64476;55.004;73.342;2023-08-06T13:44:29;99771.59;;;22.90;37.54
69737;BME280;64476;55.004;73.342;2023-08-06T13:47:31;99787.66;;;22.90;37.23
69737;BME280;64476;55.004;73.342;2023-08-06T13:50:32;99780.91;;;22.78;37.10
69737;BME280;64476;55.004;73.342;2023-08-06T13:53:43;99787.81;;;22.68;37.46
69737;BME280;64476;55.004;73.342;2023-08-06T13:56:45;99812.50;;;22.76;37.09
69737;BME280;64476;55.004;73.342;2023-08-06T13:59:47;99811.91;;;22.68;37.35
69737;BME280;64476;55.004;73.342;2023-08-06T14:02:48;99804.63;;;22.59;37.34
69737;BME280;64476;55.004;73.342;2023-08-06T14:05:50;99796.78;;;22.47;37.47
69737;BME280;64476;55.004;73.342;2023-08-06T14:08:52;99784.88;;;22.33;37.94
69737;BME280;64476;55.004;73.342;2023-08-06T14:11:54;99803.66;;;22.38;38.14
69737;BME280;64476;55.004;73.342;2023-08-06T14:14:59;99790.97;;;22.23;37.42
69737;BME280;64476;55.004;73.342;2023-08-06T14:18:02;99765.66;;;22.04;37.79
69737;BME280;64476;55.004;73.342;2023-08-06T14:21:04;99814.44;;;22.16;37.65
69737;BME280;64476;55.004;73.342;2023-08-06T14:24:06;99814.91;;;22.08;37.85
69737;BME280;64476;55.004;73.342;2023-08-06T14:27:08;99790.16;;;21.90;38.05
69737;BME280;64476;55.004;73.342;2023-08-06T14:30:10;99800.59;;;21.92;38.04
69737;BME280;64476;55.004;73.342;2023-08-06T14:33:12;99814.72;;;21.87;38.25
69737;BME280;64476;55.004;73.342;2023-08-06T14:36:14;99810.88;;;21.78;38.31
69737;BME280;64476;55.004;73.342;2023-08-06T14:39:15;99825.81;;;21.74;38.66
69737;BME280;64476;55.004;73.342;2023-08-06T14:42:18;99828.38;;;21.64;38.92
69737;BME280;64476;55.004;73.342;2023-08-06T14:45:19;99823.41;;;21.50;38.92
69737;BME280;64476;55.004;73.342;2023-08-06T14:48:21;99837.81;;;21.49;39.00
69737;BME280;64476;55.004;73.342;2023-08-06T14:51:23;99825.59;;;21.32;39.28
69737;BME280;64476;55.004;73.342;2023-08-06T14:54:24;99851.06;;;21.39;39.18
69737;BME280;64476;55.004;73.342;2023-08-06T14:57:26;99846.09;;;21.26;39.62
69737;BME280;64476;55.004;73.342;2023-08-06T15:00:30;99823.38;;;21.06;39.63
69737;BME280;64476;55.004;73.342;2023-08-06T15:03:32;99843.88;;;21.01;40.01
69737;BME280;64476;55.004;73.342;2023-08-06T15:06:34;99839.75;;;20.93;40.00
69737;BME280;64476;55.004;73.342;2023-08-06T15:09:36;99856.59;;;20.94;40.02
69737;BME280;64476;55.004;73.342;2023-08-06T15:12:38;99861.59;;;20.90;40.48
69737;BME280;64476;55.004;73.342;2023-08-06T15:15:40;99852.06;;;20.77;40.52
69737;BME280;64476;55.004;73.342;2023-08-06T15:18:43;99854.66;;;20.72;40.47
69737;BME280;64476;55.004;73.342;2023-08-06T15:21:46;99865.28;;;20.67;40.74
69737;BME280;64476;55.004;73.342;2023-08-06T15:24:48;99864.13;;;20.63;40.95
69737;BME280;64476;55.004;73.342;2023-08-06T15:27:49;99864.00;;;20.53;41.38
69737;BME280;64476;55.004;73.342;2023-08-06T15:30:54;99853.63;;;20.40;41.59
69737;BME280;64476;55.004;73.342;2023-08-06T15:33:56;99862.66;;;20.39;41.70
69737;BME280;64476;55.004;73.342;2023-08-06T15:36:58;99851.63;;;20.18;41.85
69737;BME280;64476;55.004;73.342;2023-08-06T15:39:59;99869.34;;;20.24;42.00
69737;BME280;64476;55.004;73.342;2023-08-06T15:43:02;99837.69;;;19.99;42.08
69737;BME280;64476;55.004;73.342;2023-08-06T15:46:03;99860.50;;;20.07;43.03
69737;BME280;64476;55.004;73.342;2023-08-06T15:49:05;99863.81;;;19.97;42.48
69737;BME280;64476;55.004;73.342;2023-08-06T15:52:07;99869.03;;;19.92;42.54
69737;BME280;64476;55.004;73.342;2023-08-06T15:55:13;99815.72;;;19.52;42.63
69737;BME280;64476;55.004;73.342;2023-08-06T15:58:15;99833.44;;;19.58;42.78
69737;BME280;64476;55.004;73.342;2023-08-06T16:01:20;99828.84;;;19.53;42.87
69737;BME280;64476;55.004;73.342;2023-08-06T16:04:26;99857.66;;;19.68;42.90
69737;BME280;64476;55.004;73.342;2023-08-06T16:07:28;99841.91;;;19.55;43.10
69737;BME280;64476;55.004;73.342;2023-08-06T16:10:29;99854.75;;;19.58;43.08
69737;BME280;64476;55.004;73.342;2023-08-06T16:13:31;99819.28;;;19.29;43.50
69737;BME280;64476;55.004;73.342;2023-08-06T16:16:33;99863.34;;;19.48;43.52
69737;BME280;64476;55.004;73.342;2023-08-06T16:19:34;99855.06;;;19.33;43.46
69737;BME280;64476;55.004;73.342;2023-08-06T16:22:36;99869.31;;;19.38;43.54
69737;BME280;64476;55.004;73.342;2023-08-06T16:25:42;99847.44;;;19.25;43.71
69737;BME280;64476;55.004;73.342;2023-08-06T16:28:46;99833.09;;;19.14;43.91